Terminal Aerodrome Forecast
Issued by NWS

Home | Current Version | Previous Version | Text Only | Print | Product List | Glossary On
Versions: 1 2 3 4 5 6 7 8 9 10 11 12 13
230
FTPA31 PHFO 292320
TAFHTO
TAF
PHTO 292320Z 3000/3024 02011KT P6SM FEW030 SCT045
     FM300600 24005KT P6SM VCSH SCT025 BKN035
     FM302000 07008KT P6SM FEW030 SCT045=

USA.gov is the U.S. government's official web portal to all federal, state and local government web resources and services.